Time,TemperatureF,DewpointF,PressureIn,WindDirection,WindDirectionDegrees,WindSpeedMPH,WindSpeedGustMPH,Humidity,HourlyPrecipIn,Conditions,Clouds,dailyrainin,SoftwareType,DateUTC
2013-01-24 00:03:00,10.0,9.0,-100.00,NNW,345,1.0,6.0,90,0.00,,,-99.99,,2013-01-24 05:03:00,
2013-01-24 00:12:00,9.0,7.0,-100.00,NE,55,1.0,6.0,90,0.00,,,-99.99,,2013-01-24 05:12:00,
2013-01-24 00:22:00,10.0,9.0,-100.00,NNE,21,1.0,6.0,90,0.00,,,-99.99,,2013-01-24 05:22:00,
2013-01-24 00:33:00,10.0,9.0,-100.00,NNE,24,1.0,6.0,90,0.00,,,-99.99,,2013-01-24 05:33:00,
2013-01-24 00:43:00,11.0,10.0,-100.00,North,4,2.0,6.0,90,0.00,,,-99.99,,2013-01-24 05:43:00,
2013-01-24 00:52:00,11.0,9.0,-100.00,NNE,33,2.0,6.0,90,0.00,,,-99.99,,2013-01-24 05:52:00,
2013-01-24 01:03:00,11.0,9.0,-100.00,North,358,1.0,6.0,89,0.00,,,-99.99,,2013-01-24 06:03:00,
2013-01-24 01:12:00,11.0,9.0,-100.00,ENE,63,2.0,6.0,89,1.14,,,-99.99,,2013-01-24 06:12:00,
2013-01-24 01:22:00,10.0,9.0,-100.00,NE,56,1.0,6.0,90,6.22,,,-99.99,,2013-01-24 06:22:00,
2013-01-24 01:32:00,12.0,10.0,-100.00,NNE,16,1.0,6.0,89,20.39,,,-99.99,,2013-01-24 06:32:00,
2013-01-24 01:42:00,10.0,9.0,-100.00,NE,45,1.0,6.0,90,14.17,,,-99.99,,2013-01-24 06:42:00,
2013-01-24 01:52:00,11.0,9.0,-100.00,NE,46,1.0,6.0,89,6.22,,,-99.99,,2013-01-24 06:52:00,
2013-01-24 02:03:00,11.0,10.0,-100.00,NNE,24,1.0,6.0,90,4.53,,,-99.99,,2013-01-24 07:03:00,
2013-01-24 02:12:00,13.0,12.0,-100.00,ENE,62,1.0,6.0,90,2.83,,,-99.99,,2013-01-24 07:12:00,
2013-01-24 02:23:00,11.0,10.0,-100.00,ENE,64,1.0,6.0,90,4.53,,,-99.99,,2013-01-24 07:23:00,
2013-01-24 02:33:00,11.0,10.0,-100.00,ENE,64,2.0,6.0,91,6.22,,,-99.99,,2013-01-24 07:33:00,
2013-01-24 02:43:00,12.0,10.0,-100.00,ENE,63,2.0,6.0,91,23.23,,,-99.99,,2013-01-24 07:43:00,
2013-01-24 02:52:00,11.0,10.0,-100.00,SSW,197,0.0,6.0,89,14.17,,,-99.99,,2013-01-24 07:52:00,
2013-01-24 03:02:00,12.0,10.0,-100.00,NE,40,0.0,6.0,91,7.36,,,-99.99,,2013-01-24 08:02:00,
2013-01-24 03:12:00,12.0,10.0,-100.00,SW,223,1.0,6.0,90,2.83,,,-99.99,,2013-01-24 08:12:00,
2013-01-24 03:23:00,13.0,12.0,-100.00,East,87,0.0,6.0,91,-99.99,,,-99.99,,2013-01-24 08:23:00,
2013-01-24 03:33:00,13.0,12.0,-100.00,NNE,25,0.0,6.0,91,0.00,,,-99.99,,2013-01-24 08:33:00,
2013-01-24 03:43:00,12.0,10.0,-100.00,SSW,194,0.0,6.0,90,4.53,,,-99.99,,2013-01-24 08:43:00,
2013-01-24 03:52:00,12.0,10.0,-100.00,West,266,0.0,6.0,91,-99.99,,,-99.99,,2013-01-24 08:52:00,
2013-01-24 04:03:00,13.0,12.0,-100.00,NW,323,0.0,6.0,93,15.31,,,-99.99,,2013-01-24 09:03:00,
2013-01-24 04:13:00,14.0,14.0,-100.00,NW,323,0.0,6.0,93,-99.99,,,-99.99,,2013-01-24 09:13:00,
2013-01-24 04:23:00,13.0,12.0,-100.00,West,273,0.0,6.0,91,-99.99,,,-99.99,,2013-01-24 09:23:00,
2013-01-24 04:33:00,12.0,10.0,-100.00,West,273,0.0,6.0,91,-99.99,,,-99.99,,2013-01-24 09:33:00,
2013-01-24 04:43:00,9.0,9.0,-100.00,West,273,0.0,6.0,91,12.48,,,-99.99,,2013-01-24 09:43:00,
2013-01-24 04:52:00,12.0,10.0,-100.00,NNW,345,0.0,6.0,91,7.36,,,-99.99,,2013-01-24 09:52:00,
2013-01-24 05:03:00,13.0,12.0,-100.00,North,8,0.0,6.0,91,0.00,,,-99.99,,2013-01-24 10:03:00,
2013-01-24 05:12:00,13.0,12.0,-100.00,WNW,300,0.0,6.0,91,0.00,,,-99.99,,2013-01-24 10:12:00,
2013-01-24 05:23:00,12.0,10.0,-100.00,North,11,0.0,6.0,91,0.00,,,-99.99,,2013-01-24 10:23:00,
2013-01-24 05:33:00,12.0,10.0,-100.00,ENE,62,0.0,6.0,91,0.00,,,-99.99,,2013-01-24 10:33:00,
2013-01-24 05:43:00,10.0,9.0,-100.00,NNE,28,0.0,6.0,91,0.00,,,-99.99,,2013-01-24 10:43:00,
2013-01-24 05:52:00,11.0,10.0,-100.00,NW,306,0.0,6.0,91,0.00,,,-99.99,,2013-01-24 10:52:00,
2013-01-24 06:03:00,11.0,9.0,-100.00,ENE,77,0.0,6.0,90,0.00,,,-99.99,,2013-01-24 11:03:00,
2013-01-24 06:12:00,10.0,9.0,-100.00,ENE,77,0.0,6.0,91,0.00,,,-99.99,,2013-01-24 11:12:00,
2013-01-24 06:23:00,11.0,9.0,-100.00,NE,38,0.0,6.0,91,0.00,,,-99.99,,2013-01-24 11:23:00,
2013-01-24 06:33:00,10.0,9.0,-100.00,WNW,283,0.0,6.0,90,0.00,,,-99.99,,2013-01-24 11:33:00,
2013-01-24 06:43:00,10.0,10.0,-100.00,SSW,201,0.0,6.0,93,0.00,,,-99.99,,2013-01-24 11:43:00,
2013-01-24 06:53:00,13.0,12.0,-100.00,SSE,168,1.0,6.0,93,2.83,,,-99.99,,2013-01-24 11:53:00,
2013-01-24 07:03:00,14.0,12.0,-100.00,SE,135,1.0,6.0,90,12.48,,,-99.99,,2013-01-24 12:03:00,
2013-01-24 07:12:00,14.0,14.0,-100.00,SSE,162,1.0,6.0,91,2.83,,,-99.99,,2013-01-24 12:12:00,
2013-01-24 07:23:00,16.0,16.0,-100.00,SSW,206,1.0,6.0,91,-99.99,,,-99.99,,2013-01-24 12:23:00,
2013-01-24 07:33:00,16.0,14.0,-100.00,South,190,1.0,6.0,91,0.00,,,-99.99,,2013-01-24 12:33:00,
2013-01-24 07:43:00,16.0,16.0,-100.00,SSE,165,1.0,6.0,93,0.00,,,-99.99,,2013-01-24 12:43:00,
2013-01-24 07:53:00,16.0,16.0,-100.00,SE,132,0.0,6.0,93,0.00,,,-99.99,,2013-01-24 12:53:00,
2013-01-24 08:03:00,17.0,16.0,-100.00,SE,142,1.0,6.0,91,-99.99,,,-99.99,,2013-01-24 13:03:00,
2013-01-24 08:13:00,16.0,16.0,-100.00,West,264,0.0,6.0,93,21.54,,,-99.99,,2013-01-24 13:13:00,
2013-01-24 08:23:00,17.0,16.0,-100.00,WSW,238,0.0,6.0,93,1.14,,,-99.99,,2013-01-24 13:23:00,
2013-01-24 08:33:00,14.0,12.0,-100.00,SW,218,0.0,6.0,91,0.00,,,-99.99,,2013-01-24 13:33:00,
2013-01-24 08:43:00,14.0,12.0,-100.00,WSW,241,0.0,6.0,91,0.00,,,-99.99,,2013-01-24 13:43:00,
2013-01-24 08:53:00,16.0,14.0,-100.00,SSW,206,0.0,6.0,91,0.00,,,-99.99,,2013-01-24 13:53:00,
2013-01-24 09:03:00,17.0,16.0,-100.00,East,79,0.0,6.0,94,0.00,,,-99.99,,2013-01-24 14:03:00,
2013-01-24 09:12:00,17.0,16.0,-100.00,SW,232,1.0,6.0,91,0.00,,,-99.99,,2013-01-24 14:12:00,
2013-01-24 09:23:00,19.0,18.0,-100.00,SSW,201,0.0,6.0,90,0.00,,,-99.99,,2013-01-24 14:23:00,
2013-01-24 09:33:00,18.0,16.0,-100.00,SSW,204,1.0,6.0,89,0.00,,,-99.99,,2013-01-24 14:33:00,
2013-01-24 09:43:00,18.0,16.0,-100.00,SSW,208,2.0,6.0,90,0.00,,,-99.99,,2013-01-24 14:43:00,
2013-01-24 09:53:00,20.0,18.0,-100.00,WSW,249,2.0,6.0,86,0.00,,,-99.99,,2013-01-24 14:53:00,
2013-01-24 10:04:00,19.0,16.0,-100.00,SW,214,4.0,6.0,82,0.00,,,-99.99,,2013-01-24 15:04:00,
2013-01-24 10:13:00,20.0,16.0,-100.00,SSW,208,4.0,6.0,82,0.00,,,-99.99,,2013-01-24 15:13:00,
2013-01-24 10:23:00,20.0,16.0,-100.00,SW,224,6.0,10.0,80,7.36,,,-99.99,,2013-01-24 15:23:00,
2013-01-24 10:33:00,17.0,12.0,-100.00,South,189,6.0,10.0,76,0.00,,,-99.99,,2013-01-24 15:33:00,
2013-01-24 10:43:00,18.0,10.0,-100.00,SSW,200,7.0,10.0,69,0.00,,,-99.99,,2013-01-24 15:43:00,
2013-01-24 10:53:00,18.0,10.0,-100.00,SSW,210,6.0,10.0,67,0.00,,,-99.99,,2013-01-24 15:53:00,
2013-01-24 11:04:00,18.0,10.0,-100.00,WSW,244,8.0,10.0,66,0.00,,,-99.99,,2013-01-24 16:04:00,
2013-01-24 11:12:00,18.0,9.0,-100.00,SSW,211,10.0,14.0,66,0.00,,,-99.99,,2013-01-24 16:12:00,
2013-01-24 11:23:00,17.0,9.0,-100.00,SSW,196,8.0,14.0,66,0.00,,,-99.99,,2013-01-24 16:23:00,
2013-01-24 11:33:00,19.0,10.0,-100.00,SSE,155,6.0,14.0,67,0.00,,,-99.99,,2013-01-24 16:33:00,
2013-01-24 11:43:00,19.0,10.0,-100.00,SSE,155,6.0,14.0,67,0.00,,,-99.99,,2013-01-24 16:43:00,
2013-01-24 12:03:00,20.0,9.0,-100.00,SSE,162,8.0,14.0,59,0.00,,,-99.99,,2013-01-24 17:03:00,
2013-01-24 12:12:00,20.0,10.0,-100.00,South,189,6.0,14.0,62,0.00,,,-99.99,,2013-01-24 17:12:00,
2013-01-24 12:22:00,20.0,10.0,-100.00,South,189,6.0,14.0,62,0.00,,,-99.99,,2013-01-24 17:22:00,
2013-01-24 12:32:00,19.0,7.0,-100.00,South,182,8.0,14.0,56,0.00,,,-99.99,,2013-01-24 17:32:00,
2013-01-24 12:42:00,18.0,5.0,-100.00,SW,214,7.0,14.0,55,0.00,,,-99.99,,2013-01-24 17:42:00,
2013-01-24 12:52:00,20.0,9.0,-100.00,SSE,163,7.0,14.0,56,0.00,,,-99.99,,2013-01-24 17:52:00,
2013-01-24 13:03:00,21.0,9.0,-100.00,South,177,6.0,14.0,55,0.00,,,-99.99,,2013-01-24 18:03:00,
2013-01-24 13:12:00,19.0,7.0,-100.00,SSW,201,6.0,14.0,53,0.00,,,-99.99,,2013-01-24 18:12:00,
2013-01-24 13:22:00,20.0,9.0,-100.00,South,172,4.0,14.0,59,0.00,,,-99.99,,2013-01-24 18:22:00,
2013-01-24 13:33:00,17.0,5.0,-100.00,SSW,208,5.0,14.0,55,0.00,,,-99.99,,2013-01-24 18:33:00,
2013-01-24 13:42:00,19.0,7.0,-100.00,South,172,6.0,14.0,56,0.00,,,-99.99,,2013-01-24 18:42:00,
2013-01-24 13:53:00,18.0,5.0,-100.00,South,177,7.0,14.0,54,0.00,,,-99.99,,2013-01-24 18:53:00,
2013-01-24 14:02:00,19.0,7.0,-100.00,SSE,165,6.0,14.0,55,0.00,,,-99.99,,2013-01-24 19:02:00,
2013-01-24 14:12:00,19.0,7.0,-100.00,SSE,158,5.0,14.0,55,0.00,,,-99.99,,2013-01-24 19:12:00,
2013-01-24 14:22:00,18.0,5.0,-100.00,South,190,7.0,14.0,53,0.00,,,-99.99,,2013-01-24 19:22:00,
2013-01-24 14:33:00,19.0,5.0,-100.00,SSE,155,7.0,14.0,54,0.00,,,-99.99,,2013-01-24 19:33:00,
2013-01-24 14:42:00,18.0,5.0,-100.00,SSE,159,4.0,14.0,54,0.00,,,-99.99,,2013-01-24 19:42:00,
2013-01-24 14:52:00,18.0,5.0,-100.00,South,172,4.0,14.0,55,0.00,,,-99.99,,2013-01-24 19:52:00,
2013-01-24 15:02:00,17.0,5.0,-100.00,SSE,153,5.0,14.0,56,0.00,,,-99.99,,2013-01-24 20:02:00,
2013-01-24 15:12:00,17.0,5.0,-100.00,SSE,158,6.0,14.0,53,0.00,,,-99.99,,2013-01-24 20:12:00,
2013-01-24 15:22:00,19.0,7.0,-100.00,SSW,194,6.0,14.0,58,0.00,,,-99.99,,2013-01-24 20:22:00,
2013-01-24 15:33:00,18.0,7.0,-100.00,SSE,158,6.0,14.0,58,0.00,,,-99.99,,2013-01-24 20:33:00,
2013-01-24 15:42:00,19.0,9.0,-100.00,South,175,7.0,14.0,60,0.00,,,-99.99,,2013-01-24 20:42:00,
2013-01-24 15:52:00,19.0,9.0,-100.00,SSE,156,6.0,14.0,59,0.00,,,-99.99,,2013-01-24 20:52:00,
2013-01-24 16:03:00,18.0,7.0,-100.00,SSE,160,5.0,14.0,59,0.00,,,-99.99,,2013-01-24 21:03:00,
2013-01-24 16:12:00,17.0,7.0,-100.00,SE,131,4.0,4.0,60,6.22,,,-99.99,,2013-01-24 21:12:00,
2013-01-24 16:22:00,20.0,9.0,-100.00,SSW,194,4.0,4.0,60,0.00,,,-99.99,,2013-01-24 21:22:00,
2013-01-24 16:33:00,17.0,9.0,-100.00,SSE,151,4.0,4.0,64,0.00,,,-99.99,,2013-01-24 21:33:00,
2013-01-24 16:43:00,18.0,10.0,-100.00,South,190,3.0,6.0,67,0.00,,,-99.99,,2013-01-24 21:43:00,
2013-01-24 16:52:00,16.0,9.0,-100.00,SSW,199,3.0,6.0,67,0.00,,,-99.99,,2013-01-24 21:52:00,
2013-01-24 17:03:00,16.0,7.0,-100.00,South,173,3.0,6.0,67,0.00,,,-99.99,,2013-01-24 22:03:00,
2013-01-24 17:12:00,16.0,9.0,-100.00,SE,142,3.0,6.0,69,0.00,,,-99.99,,2013-01-24 22:12:00,
2013-01-24 17:22:00,15.0,7.0,-100.00,SE,138,2.0,6.0,68,0.00,,,-99.99,,2013-01-24 22:22:00,
2013-01-24 17:33:00,16.0,10.0,-100.00,WSW,251,2.0,6.0,71,0.00,,,-99.99,,2013-01-24 22:33:00,
2013-01-24 17:42:00,14.0,7.0,-100.00,SSE,163,2.0,6.0,71,0.00,,,-99.99,,2013-01-24 22:42:00,
2013-01-24 17:52:00,15.0,9.0,-100.00,SE,138,2.0,6.0,69,0.00,,,-99.99,,2013-01-24 22:52:00,
2013-01-24 18:03:00,13.0,7.0,-100.00,ESE,111,1.0,6.0,71,0.00,,,-99.99,,2013-01-24 23:03:00,
2013-01-24 18:12:00,15.0,9.0,-100.00,ESE,121,1.0,6.0,71,0.00,,,-99.99,,2013-01-24 23:12:00,
2013-01-24 18:22:00,14.0,9.0,-100.00,SE,132,1.0,6.0,75,1.14,,,-99.99,,2013-01-24 23:22:00,
2013-01-24 18:32:00,14.0,9.0,-100.00,ENE,72,0.0,6.0,76,0.00,,,-99.99,,2013-01-24 23:32:00,
2013-01-24 18:42:00,11.0,5.0,-100.00,North,4,0.0,6.0,73,0.00,,,-99.99,,2013-01-24 23:42:00,
2013-01-24 18:52:00,11.0,7.0,-100.00,North,352,0.0,6.0,80,0.00,,,-99.99,,2013-01-24 23:52:00,
2013-01-24 19:02:00,8.0,3.0,-100.00,NNE,16,0.0,6.0,78,0.00,,,-99.99,,2013-01-25 00:02:00,
2013-01-24 19:12:00,9.0,3.0,-100.00,NNE,18,0.0,6.0,78,0.00,,,-99.99,,2013-01-25 00:12:00,
2013-01-24 19:22:00,4.0,0.0,-100.00,ENE,74,0.0,6.0,81,0.00,,,-99.99,,2013-01-25 00:22:00,
2013-01-24 19:32:00,8.0,5.0,-100.00,NNW,338,0.0,6.0,82,0.00,,,-99.99,,2013-01-25 00:32:00,
2013-01-24 19:42:00,7.0,3.0,-100.00,WNW,290,0.0,6.0,84,0.00,,,-99.99,,2013-01-25 00:42:00,
2013-01-24 19:52:00,8.0,5.0,-100.00,North,1,0.0,6.0,86,0.00,,,-99.99,,2013-01-25 00:52:00,
2013-01-24 20:02:00,4.0,1.0,-100.00,NNE,16,0.0,6.0,86,0.00,,,-99.99,,2013-01-25 01:02:00,
2013-01-24 20:12:00,8.0,7.0,-100.00,East,80,0.0,6.0,88,0.00,,,-99.99,,2013-01-25 01:12:00,
2013-01-24 20:22:00,3.0,1.0,-100.00,WNW,297,0.0,6.0,85,0.00,,,-99.99,,2013-01-25 01:22:00,
2013-01-24 20:32:00,3.0,1.0,-100.00,NNW,338,0.0,6.0,86,0.00,,,-99.99,,2013-01-25 01:32:00,
2013-01-24 20:42:00,2.0,0.0,-100.00,NNW,340,0.0,6.0,85,0.00,,,-99.99,,2013-01-25 01:42:00,
2013-01-24 20:52:00,3.0,1.0,-100.00,NNE,12,0.0,6.0,88,0.00,,,-99.99,,2013-01-25 01:52:00,
2013-01-24 21:02:00,3.0,1.0,-100.00,NNE,12,0.0,6.0,88,0.00,,,-99.99,,2013-01-25 02:02:00,
2013-01-24 21:12:00,-1.0,-2.0,-100.00,NNW,334,0.0,6.0,88,0.00,,,-99.99,,2013-01-25 02:12:00,
2013-01-24 21:22:00,-2.0,-4.0,-100.00,North,358,0.0,6.0,86,0.00,,,-99.99,,2013-01-25 02:22:00,
2013-01-24 21:32:00,-1.0,-4.0,-100.00,North,352,0.0,6.0,86,0.00,,,-99.99,,2013-01-25 02:32:00,
2013-01-24 21:42:00,-1.0,-2.0,-100.00,North,358,0.0,6.0,88,0.00,,,-99.99,,2013-01-25 02:42:00,
2013-01-24 21:52:00,-2.0,-4.0,-100.00,North,5,0.0,6.0,86,0.00,,,-99.99,,2013-01-25 02:52:00,
2013-01-24 22:02:00,-2.0,-4.0,-100.00,North,351,0.0,6.0,86,0.00,,,-99.99,,2013-01-25 03:02:00,
2013-01-24 22:12:00,-2.0,-4.0,-100.00,NNE,24,0.0,6.0,86,0.00,,,-99.99,,2013-01-25 03:12:00,
2013-01-24 22:22:00,-4.0,-6.0,-100.00,NNW,333,0.0,6.0,85,0.00,,,-99.99,,2013-01-25 03:22:00,
2013-01-24 22:33:00,-3.0,-6.0,-100.00,ENE,77,0.0,6.0,86,0.00,,,-99.99,,2013-01-25 03:33:00,
2013-01-24 22:42:00,-3.0,-6.0,-100.00,NNW,347,0.0,6.0,85,0.00,,,-99.99,,2013-01-25 03:42:00,
2013-01-24 22:52:00,-3.0,-6.0,-100.00,NNW,347,0.0,6.0,85,0.00,,,-99.99,,2013-01-25 03:52:00,
2013-01-24 23:02:00,-1.0,-4.0,-100.00,North,0,0.0,6.0,86,0.00,,,-99.99,,2013-01-25 04:02:00,
2013-01-24 23:12:00,-3.0,-4.0,-100.00,NW,321,0.0,6.0,86,0.00,,,-99.99,,2013-01-25 04:12:00,
2013-01-24 23:22:00,-1.0,-2.0,-100.00,NNE,18,0.0,6.0,86,0.00,,,-99.99,,2013-01-25 04:22:00,
2013-01-24 23:32:00,-3.0,-4.0,-100.00,ENE,74,0.0,6.0,89,0.00,,,-99.99,,2013-01-25 04:32:00,
2013-01-24 23:42:00,1.0,0.0,-100.00,North,355,0.0,6.0,88,0.00,,,-99.99,,2013-01-25 04:42:00,
2013-01-24 23:51:00,2.0,0.0,-100.00,North,1,0.0,6.0,88,0.00,,,-99.99,,2013-01-25 04:51:00,